Time;durP1;ratioP1;P1;durP2;ratioP2;P2;SDS_P1;SDS_P2;PMS_P1;PMS_P2;Temp;Humidity;BMP_temperature;BMP_pressure;BME280_temperature;BME280_humidity;BME280_pressure;Samples;Min_cycle;Max_cycle;Signal;HPM_P1;HPM_P2
2021/12/06 00:01:31;;;;;;;4.30;3.40;;;;;;;;;;5032184;28;20501;-72
2021/12/06 00:04:18;;;;;;;4.18;3.00;;;;;;;;;;5032189;28;20080;-71
2021/12/06 00:06:46;;;;;;;4.50;2.70;;;;;;;;;;5032151;28;20075;-71
2021/12/06 00:09:19;;;;;;;5.10;2.97;;;;;;;;;;5032131;28;20067;-73
2021/12/06 00:11:44;;;;;;;5.00;3.63;;;;;;;;;;5032074;28;20200;-72
2021/12/06 00:14:10;;;;;;;5.45;3.42;;;;;;;;;;5031797;28;20139;-71
2021/12/06 00:16:35;;;;;;;8.80;4.20;;;;;;;;;;5031985;28;20383;-73
2021/12/06 00:19:01;;;;;;;9.15;4.93;;;;;;;;;;5032267;28;20025;-71
2021/12/06 00:21:27;;;;;;;7.22;4.75;;;;;;;;;;5031772;28;20028;-73
2021/12/06 00:23:53;;;;;;;9.02;5.10;;;;;;;;;;5031805;28;20495;-72
2021/12/06 00:26:18;;;;;;;7.13;4.15;;;;;;;;;;5031683;28;20119;-71
2021/12/06 00:28:45;;;;;;;5.50;3.97;;;;;;;;;;5031680;28;20025;-71
2021/12/06 00:31:12;;;;;;;5.22;3.53;;;;;;;;;;5031664;28;20502;-71
2021/12/06 00:33:39;;;;;;;5.32;3.67;;;;;;;;;;5031633;28;20471;-71
2021/12/06 00:36:08;;;;;;;3.90;3.25;;;;;;;;;;5031800;28;20096;-71
2021/12/06 00:38:36;;;;;;;8.40;4.85;;;;;;;;;;5031696;28;20017;-72
2021/12/06 00:41:03;;;;;;;7.43;4.45;;;;;;;;;;5031460;28;20526;-72
2021/12/06 00:43:28;;;;;;;8.55;5.07;;;;;;;;;;5031343;28;20025;-70
2021/12/06 00:45:54;;;;;;;6.97;4.95;;;;;;;;;;5031457;28;20213;-72
2021/12/06 00:48:19;;;;;;;6.93;4.97;;;;;;;;;;5031753;28;20116;-71
2021/12/06 00:50:44;;;;;;;6.38;4.90;;;;;;;;;;5031420;28;20053;-72
2021/12/06 00:53:11;;;;;;;6.40;4.75;;;;;;;;;;5030427;28;20067;-72
2021/12/06 00:55:37;;;;;;;6.82;4.50;;;;;;;;;;5031285;28;20423;-71
2021/12/06 00:58:03;;;;;;;5.30;4.28;;;;;;;;;;5031061;28;20498;-71
2021/12/06 01:00:40;;;;;;;6.97;4.63;;;;;;;;;;5031217;28;20099;-71
2021/12/06 01:03:08;;;;;;;5.10;4.13;;;;;;;;;;5029718;28;20035;-72
2021/12/06 01:05:34;;;;;;;6.93;4.60;;;;;;;;;;5031040;28;20471;-73
2021/12/06 01:08:00;;;;;;;6.15;4.13;;;;;;;;;;5031030;28;20030;-71
2021/12/06 01:10:27;;;;;;;6.88;5.07;;;;;;;;;;5029620;28;20029;-71
2021/12/06 01:12:53;;;;;;;5.70;4.10;;;;;;;;;;5030770;28;20029;-74
2021/12/06 01:15:18;;;;;;;5.85;4.00;;;;;;;;;;5030975;28;20032;-73
2021/12/06 01:17:45;;;;;;;7.07;4.80;;;;;;;;;;5030780;28;20407;-71
2021/12/06 01:20:20;;;;;;;7.13;4.60;;;;;;;;;;5030795;28;20061;-71
2021/12/06 01:22:55;;;;;;;5.35;4.10;;;;;;;;;;5030976;28;20022;-72
2021/12/06 01:33:35;;;;;;;8.43;5.03;;;;;;;;;;5030109;28;20041;-71
2021/12/06 01:41:32;;;;;;;6.97;5.25;;;;;;;;;;5030449;28;20025;-72
2021/12/06 01:44:06;;;;;;;8.55;5.43;;;;;;;;;;5030500;28;20040;-72
2021/12/06 01:46:33;;;;;;;7.93;5.22;;;;;;;;;;5030161;28;20394;-73
2021/12/06 01:48:58;;;;;;;7.60;5.28;;;;;;;;;;5030375;28;20033;-71
2021/12/06 01:51:25;;;;;;;6.53;4.80;;;;;;;;;;5028670;28;20056;-74
2021/12/06 01:53:50;;;;;;;8.40;5.03;;;;;;;;;;5030132;28;20037;-72
2021/12/06 01:56:16;;;;;;;6.40;4.35;;;;;;;;;;5030131;28;20375;-71
2021/12/06 01:58:43;;;;;;;5.50;4.40;;;;;;;;;;5030214;28;20087;-72
2021/12/06 02:01:08;;;;;;;7.10;4.85;;;;;;;;;;5030110;28;20033;-72
2021/12/06 02:03:34;;;;;;;6.53;4.45;;;;;;;;;;5030093;28;20376;-71
2021/12/06 02:05:59;;;;;;;3.85;2.88;;;;;;;;;;5029921;28;20034;-72
2021/12/06 02:08:24;;;;;;;3.78;2.38;;;;;;;;;;5029871;28;20395;-72
2021/12/06 02:10:53;;;;;;;3.03;2.28;;;;;;;;;;5029781;28;20057;-71
2021/12/06 02:13:18;;;;;;;2.88;2.47;;;;;;;;;;5029489;28;20031;-73
2021/12/06 02:15:52;;;;;;;3.85;2.33;;;;;;;;;;5029935;28;20469;-71
2021/12/06 02:21:03;;;;;;;2.50;2.25;;;;;;;;;;5030014;28;20036;-72
2021/12/06 02:23:29;;;;;;;3.50;2.50;;;;;;;;;;5029445;28;20045;-72
2021/12/06 02:25:55;;;;;;;3.83;2.58;;;;;;;;;;5029714;28;20415;-71
2021/12/06 02:28:21;;;;;;;4.25;2.90;;;;;;;;;;5029646;28;20484;-73
2021/12/06 02:30:46;;;;;;;4.43;3.00;;;;;;;;;;5029925;28;20057;-71
2021/12/06 02:33:12;;;;;;;3.40;2.50;;;;;;;;;;5029609;28;20049;-75
2021/12/06 02:35:37;;;;;;;3.83;2.17;;;;;;;;;;5029703;28;20064;-73
2021/12/06 02:38:07;;;;;;;2.30;2.10;;;;;;;;;;5029458;28;20040;-72
2021/12/06 02:40:34;;;;;;;2.60;2.20;;;;;;;;;;5029724;28;20396;-72
2021/12/06 02:43:03;;;;;;;2.95;1.95;;;;;;;;;;5029269;28;20116;-72
2021/12/06 02:45:30;;;;;;;6.97;1.98;;;;;;;;;;5029178;28;20029;-72
2021/12/06 02:47:58;;;;;;;2.38;1.77;;;;;;;;;;5029295;28;20103;-72
2021/12/06 02:50:27;;;;;;;1.90;1.63;;;;;;;;;;5029294;28;20104;-72
2021/12/06 02:52:54;;;;;;;2.75;2.10;;;;;;;;;;5029069;28;20029;-72
2021/12/06 02:56:30;;;;;;;2.60;1.90;;;;;;;;;;5029228;28;20041;-73
2021/12/06 02:58:32;;;;;;;1.60;1.50;;;;;;;;;;5019883;28;20495;-71
2021/12/06 03:00:57;;;;;;;1.90;1.70;;;;;;;;;;5027812;28;20057;-71
2021/12/06 03:03:23;;;;;;;1.73;1.20;;;;;;;;;;5029078;28;20498;-72
2021/12/06 03:05:52;;;;;;;2.13;1.77;;;;;;;;;;5029268;28;20037;-71
2021/12/06 03:08:38;;;;;;;2.40;1.75;;;;;;;;;;5029251;28;20026;-71
2021/12/06 03:11:07;;;;;;;2.05;1.70;;;;;;;;;;5029105;28;20053;-71
2021/12/06 03:13:33;;;;;;;2.05;1.73;;;;;;;;;;5028823;28;20043;-72
2021/12/06 03:15:58;;;;;;;2.20;1.77;;;;;;;;;;5029232;28;20112;-71
2021/12/06 03:18:24;;;;;;;2.20;1.70;;;;;;;;;;5031907;28;20029;-72
2021/12/06 03:20:49;;;;;;;2.50;1.95;;;;;;;;;;5033237;28;20033;-73
2021/12/06 03:23:14;;;;;;;2.78;2.00;;;;;;;;;;5032973;28;20132;-72
2021/12/06 03:25:40;;;;;;;2.85;2.50;;;;;;;;;;5033054;28;20077;-71
2021/12/06 03:28:05;;;;;;;3.20;2.60;;;;;;;;;;5032875;28;20053;-74
2021/12/06 03:30:30;;;;;;;3.67;2.60;;;;;;;;;;5032990;28;20075;-72
2021/12/06 03:32:56;;;;;;;2.50;2.25;;;;;;;;;;5032667;28;20025;-71
2021/12/06 03:35:21;;;;;;;2.47;2.10;;;;;;;;;;5032771;28;20090;-71
2021/12/06 03:37:47;;;;;;;5.18;2.67;;;;;;;;;;5032683;28;20491;-71
2021/12/06 03:40:12;;;;;;;3.30;2.45;;;;;;;;;;5032752;28;20499;-71
2021/12/06 03:42:38;;;;;;;4.05;3.13;;;;;;;;;;5032473;28;20483;-74
2021/12/06 03:45:08;;;;;;;6.80;3.90;;;;;;;;;;5032484;28;20403;-72
2021/12/06 03:47:34;;;;;;;4.43;3.72;;;;;;;;;;5031122;28;20031;-72
2021/12/06 03:50:01;;;;;;;4.53;3.65;;;;;;;;;;5032489;28;20030;-71
2021/12/06 03:52:26;;;;;;;6.00;4.40;;;;;;;;;;5032500;28;20498;-72
2021/12/06 03:54:53;;;;;;;5.03;4.13;;;;;;;;;;5032080;28;20033;-72
2021/12/06 03:57:20;;;;;;;6.85;4.22;;;;;;;;;;5032443;28;20032;-72
2021/12/06 03:59:46;;;;;;;4.75;3.47;;;;;;;;;;5032260;28;20021;-72
2021/12/06 04:02:11;;;;;;;4.28;3.40;;;;;;;;;;5032327;28;20100;-71
2021/12/06 04:04:37;;;;;;;5.95;3.08;;;;;;;;;;5032073;28;20519;-73
2021/12/06 04:07:04;;;;;;;3.83;2.72;;;;;;;;;;5032265;28;20030;-72
2021/12/06 04:09:29;;;;;;;4.75;3.08;;;;;;;;;;5032039;28;20029;-71
2021/12/06 04:11:55;;;;;;;2.70;2.17;;;;;;;;;;5032222;28;20395;-71
2021/12/06 04:14:20;;;;;;;3.10;2.45;;;;;;;;;;5032019;28;20025;-71
2021/12/06 04:16:46;;;;;;;3.50;2.30;;;;;;;;;;5032534;28;20148;-71
2021/12/06 04:19:12;;;;;;;5.82;2.50;;;;;;;;;;5031961;28;20036;-72
2021/12/06 04:21:41;;;;;;;6.18;3.20;;;;;;;;;;5031979;28;20032;-71
2021/12/06 04:24:07;;;;;;;7.43;4.50;;;;;;;;;;5031530;28;20064;-70
2021/12/06 04:26:33;;;;;;;6.55;4.40;;;;;;;;;;5031872;28;20028;-71
2021/12/06 04:29:01;;;;;;;6.78;4.70;;;;;;;;;;5030660;28;20042;-72
2021/12/06 04:31:33;;;;;;;6.00;4.53;;;;;;;;;;5031758;28;20430;-72
2021/12/06 04:33:59;;;;;;;7.80;4.65;;;;;;;;;;5031511;28;20120;-72
2021/12/06 04:36:25;;;;;;;8.88;5.13;;;;;;;;;;5031720;28;20117;-72
2021/12/06 04:38:50;;;;;;;6.43;4.88;;;;;;;;;;5031463;28;20116;-71
2021/12/06 04:41:16;;;;;;;7.43;4.55;;;;;;;;;;5030284;28;20049;-72
2021/12/06 04:43:42;;;;;;;7.25;4.13;;;;;;;;;;5031903;28;20033;-71
2021/12/06 04:46:07;;;;;;;6.93;4.35;;;;;;;;;;5032931;28;20021;-72
2021/12/06 04:48:33;;;;;;;8.20;3.90;;;;;;;;;;5032016;28;20109;-72
2021/12/06 04:50:58;;;;;;;9.35;4.93;;;;;;;;;;5031606;28;20287;-71
2021/12/06 04:53:35;;;;;;;6.72;4.35;;;;;;;;;;5052087;22;20063;-75
2021/12/06 04:56:16;;;;;;;5.68;3.95;;;;;;;;;;5031417;28;20112;-75
2021/12/06 04:59:10;;;;;;;7.97;4.75;;;;;;;;;;5031181;28;20108;-74
2021/12/06 05:01:36;;;;;;;7.22;4.70;;;;;;;;;;5031217;28;20045;-74
2021/12/06 05:04:09;;;;;;;8.13;4.78;;;;;;;;;;5030900;28;20037;-74
2021/12/06 05:06:39;;;;;;;9.93;6.90;;;;;;;;;;5031485;28;20025;-74
2021/12/06 05:09:15;;;;;;;8.75;5.25;;;;;;;;;;5013434;28;20049;-75
2021/12/06 05:11:42;;;;;;;5.13;3.20;;;;;;;;;;5031638;28;20379;-75
2021/12/06 05:14:07;;;;;;;4.07;2.78;;;;;;;;;;5030563;28;20025;-74
2021/12/06 05:16:35;;;;;;;3.83;2.83;;;;;;;;;;5031033;28;20025;-75
2021/12/06 05:19:01;;;;;;;3.60;2.67;;;;;;;;;;5030808;28;20391;-75
2021/12/06 05:21:27;;;;;;;4.90;3.03;;;;;;;;;;5030744;28;20037;-75
2021/12/06 05:23:52;;;;;;;4.30;2.60;;;;;;;;;;5030923;28;20530;-75
2021/12/06 05:26:18;;;;;;;3.70;2.63;;;;;;;;;;5030747;28;20036;-74
2021/12/06 05:28:45;;;;;;;3.80;2.60;;;;;;;;;;5030693;28;20033;-74
2021/12/06 05:31:19;;;;;;;5.03;2.70;;;;;;;;;;5030587;28;20032;-74
2021/12/06 05:33:47;;;;;;;4.20;2.65;;;;;;;;;;5030388;28;20030;-73
2021/12/06 05:36:14;;;;;;;4.00;2.83;;;;;;;;;;5030310;28;20029;-75
2021/12/06 05:38:40;;;;;;;4.57;2.92;;;;;;;;;;5030519;28;20613;-75
2021/12/06 05:41:05;;;;;;;5.90;3.88;;;;;;;;;;5030092;28;20108;-75
2021/12/06 05:43:32;;;;;;;6.97;3.97;;;;;;;;;;5030130;28;20032;-75
2021/12/06 05:45:58;;;;;;;5.93;4.35;;;;;;;;;;5030125;28;20054;-75
2021/12/06 05:48:23;;;;;;;12.50;7.03;;;;;;;;;;5030532;28;20084;-74
2021/12/06 05:50:49;;;;;;;10.80;6.55;;;;;;;;;;5030144;28;20040;-73
2021/12/06 05:53:16;;;;;;;9.38;5.22;;;;;;;;;;5030248;28;20432;-74
2021/12/06 05:55:42;;;;;;;7.15;4.88;;;;;;;;;;5030163;28;20033;-75
2021/12/06 05:58:10;;;;;;;7.75;5.03;;;;;;;;;;5030273;28;20029;-74
2021/12/06 06:00:36;;;;;;;8.50;5.10;;;;;;;;;;5030275;28;20426;-74
2021/12/06 06:03:04;;;;;;;7.20;4.68;;;;;;;;;;5030418;28;20036;-74
2021/12/06 06:05:30;;;;;;;8.88;4.97;;;;;;;;;;5030329;28;20036;-74
2021/12/06 06:07:56;;;;;;;8.20;4.90;;;;;;;;;;5030481;28;20467;-74
2021/12/06 06:10:21;;;;;;;7.75;4.90;;;;;;;;;;5029769;28;20025;-75
2021/12/06 06:12:47;;;;;;;7.78;5.13;;;;;;;;;;5029861;28;20533;-75
2021/12/06 06:15:12;;;;;;;9.15;5.60;;;;;;;;;;5029604;28;20056;-75
2021/12/06 06:17:43;;;;;;;9.30;5.28;;;;;;;;;;5029734;28;20100;-74
2021/12/06 06:20:31;;;;;;;10.38;5.47;;;;;;;;;;5029868;28;20029;-75
2021/12/06 06:22:56;;;;;;;10.82;6.63;;;;;;;;;;5029596;28;20029;-74
2021/12/06 06:25:22;;;;;;;10.23;6.60;;;;;;;;;;5029467;28;20052;-74
2021/12/06 06:27:48;;;;;;;12.98;6.03;;;;;;;;;;5029883;28;20033;-74
2021/12/06 06:30:14;;;;;;;13.38;6.70;;;;;;;;;;5029720;28;20032;-74
2021/12/06 06:32:41;;;;;;;13.15;6.25;;;;;;;;;;5029778;28;20375;-75
2021/12/06 06:35:07;;;;;;;12.88;7.03;;;;;;;;;;5029260;28;20029;-73
2021/12/06 06:37:32;;;;;;;11.45;6.65;;;;;;;;;;5029414;28;20072;-74
2021/12/06 06:39:58;;;;;;;13.25;7.10;;;;;;;;;;5029403;28;20503;-75
2021/12/06 06:42:24;;;;;;;11.25;6.80;;;;;;;;;;5029759;28;20031;-75
2021/12/06 06:44:51;;;;;;;11.80;7.03;;;;;;;;;;5029072;28;20025;-74
2021/12/06 06:47:17;;;;;;;12.10;6.60;;;;;;;;;;5011641;28;20421;-74
2021/12/06 06:49:43;;;;;;;14.10;7.10;;;;;;;;;;5029818;28;20025;-75
2021/12/06 06:52:08;;;;;;;19.60;10.40;;;;;;;;;;5028417;28;20555;-75
2021/12/06 06:54:33;;;;;;;15.88;7.72;;;;;;;;;;5028611;28;20188;-75
2021/12/06 06:56:59;;;;;;;12.32;7.07;;;;;;;;;;5027929;28;20049;-75
2021/12/06 06:59:24;;;;;;;13.07;6.72;;;;;;;;;;5024409;28;20049;-75
2021/12/06 07:01:50;;;;;;;13.95;7.53;;;;;;;;;;5025144;28;20025;-74
2021/12/06 07:04:15;;;;;;;13.30;7.10;;;;;;;;;;5029088;28;20025;-76
2021/12/06 07:06:41;;;;;;;18.65;7.65;;;;;;;;;;5028766;28;20026;-74
2021/12/06 07:09:06;;;;;;;13.52;7.40;;;;;;;;;;5028585;28;20041;-76
2021/12/06 07:11:32;;;;;;;14.40;7.82;;;;;;;;;;5029131;28;20111;-75
2021/12/06 07:13:57;;;;;;;13.50;7.10;;;;;;;;;;5028490;28;20390;-75
2021/12/06 07:16:23;;;;;;;13.02;7.63;;;;;;;;;;5027729;28;20395;-73
2021/12/06 07:18:49;;;;;;;14.65;7.97;;;;;;;;;;5029088;28;20088;-75
2021/12/06 07:21:14;;;;;;;14.82;7.93;;;;;;;;;;5025892;28;20036;-74
2021/12/06 07:23:42;;;;;;;13.05;8.05;;;;;;;;;;5011299;28;20368;-74
2021/12/06 07:26:09;;;;;;;13.35;7.30;;;;;;;;;;5008583;28;20104;-74
2021/12/06 07:28:36;;;;;;;60.90;22.60;;;;;;;;;;5009230;28;20036;-74
2021/12/06 07:31:05;;;;;;;31.80;13.68;;;;;;;;;;5026800;28;20482;-74
2021/12/06 07:33:32;;;;;;;13.05;7.50;;;;;;;;;;5028141;28;20032;-74
2021/12/06 07:35:57;;;;;;;11.52;6.88;;;;;;;;;;5028034;28;20116;-75
2021/12/06 07:38:22;;;;;;;12.80;6.95;;;;;;;;;;5029263;28;20125;-73
2021/12/06 07:40:50;;;;;;;11.60;6.75;;;;;;;;;;5020727;28;20213;-74
2021/12/06 07:43:19;;;;;;;11.93;6.45;;;;;;;;;;5008893;28;20030;-75
2021/12/06 07:45:45;;;;;;;12.63;5.88;;;;;;;;;;5013552;28;20028;-75
2021/12/06 07:48:11;;;;;;;12.38;6.57;;;;;;;;;;5022018;28;20037;-74
2021/12/06 07:50:36;;;;;;;12.00;6.68;;;;;;;;;;5001373;28;20569;-75
2021/12/06 07:53:02;;;;;;;13.80;7.55;;;;;;;;;;5016954;28;20025;-75
2021/12/06 07:55:31;;;;;;;22.40;11.10;;;;;;;;;;5009026;28;20466;-74
2021/12/06 07:57:58;;;;;;;22.55;11.45;;;;;;;;;;5010377;28;20529;-76
2021/12/06 08:00:25;;;;;;;16.05;8.35;;;;;;;;;;5028824;28;20022;-73
2021/12/06 08:02:51;;;;;;;11.98;6.47;;;;;;;;;;5029866;28;20029;-75
2021/12/06 08:05:35;;;;;;;13.38;6.28;;;;;;;;;;5032150;28;20025;-74
2021/12/06 08:08:19;;;;;;;11.32;6.40;;;;;;;;;;5032458;28;20060;-74
2021/12/06 08:10:48;;;;;;;11.32;6.38;;;;;;;;;;5019436;28;20038;-74
2021/12/06 08:13:16;;;;;;;15.27;6.82;;;;;;;;;;5020958;28;20033;-74
2021/12/06 08:15:43;;;;;;;14.05;7.50;;;;;;;;;;5031804;28;20040;-74
2021/12/06 08:18:09;;;;;;;12.73;6.60;;;;;;;;;;5010858;28;20033;-74
2021/12/06 08:20:35;;;;;;;14.70;7.45;;;;;;;;;;5029615;28;20037;-75
2021/12/06 08:23:01;;;;;;;13.90;7.60;;;;;;;;;;5011290;28;20032;-74
2021/12/06 08:25:26;;;;;;;14.23;7.55;;;;;;;;;;5031073;28;20021;-73
2021/12/06 08:27:52;;;;;;;12.95;7.47;;;;;;;;;;5026855;28;20479;-75
2021/12/06 08:30:22;;;;;;;14.20;8.10;;;;;;;;;;5027995;28;20032;-74
2021/12/06 08:32:53;;;;;;;13.55;7.70;;;;;;;;;;5031293;28;20590;-74
2021/12/06 08:35:19;;;;;;;16.42;9.20;;;;;;;;;;5031519;28;20037;-75
2021/12/06 08:37:45;;;;;;;16.27;8.40;;;;;;;;;;5030976;28;20151;-74
2021/12/06 08:40:11;;;;;;;16.80;8.50;;;;;;;;;;5031230;28;20029;-73
2021/12/06 08:42:36;;;;;;;16.75;8.80;;;;;;;;;;5030887;28;20037;-71
2021/12/06 08:45:04;;;;;;;14.48;7.30;;;;;;;;;;5031744;28;20032;-74
2021/12/06 08:47:29;;;;;;;18.17;10.15;;;;;;;;;;5030455;28;20074;-74
2021/12/06 08:49:55;;;;;;;15.90;8.23;;;;;;;;;;5031701;28;20128;-74
2021/12/06 08:52:21;;;;;;;16.33;8.27;;;;;;;;;;5027835;28;20026;-74
2021/12/06 08:54:47;;;;;;;14.10;7.68;;;;;;;;;;5025574;28;20030;-73
2021/12/06 08:57:12;;;;;;;16.92;7.80;;;;;;;;;;5012708;28;20067;-72
2021/12/06 08:59:38;;;;;;;14.35;8.60;;;;;;;;;;5030433;28;20037;-71
2021/12/06 09:02:04;;;;;;;14.80;7.63;;;;;;;;;;5030166;28;20026;-73
2021/12/06 09:04:34;;;;;;;15.15;8.18;;;;;;;;;;5030938;28;20072;-74
2021/12/06 09:07:00;;;;;;;14.63;8.35;;;;;;;;;;5030729;28;20033;-72
2021/12/06 09:09:27;;;;;;;14.75;7.93;;;;;;;;;;5030235;28;20029;-74
2021/12/06 09:11:55;;;;;;;17.92;8.52;;;;;;;;;;5030461;28;20063;-74
2021/12/06 09:14:21;;;;;;;17.27;8.02;;;;;;;;;;5028212;28;20026;-71
2021/12/06 09:16:47;;;;;;;18.48;8.38;;;;;;;;;;5014129;28;20036;-74
2021/12/06 09:19:15;;;;;;;17.42;8.30;;;;;;;;;;5010974;28;20026;-73
2021/12/06 09:21:43;;;;;;;15.88;7.60;;;;;;;;;;5022658;28;20438;-72
2021/12/06 09:24:13;;;;;;;18.10;7.53;;;;;;;;;;5028098;28;20030;-72
2021/12/06 09:26:38;;;;;;;23.95;12.43;;;;;;;;;;5023626;28;20034;-75
2021/12/06 09:29:05;;;;;;;20.17;9.73;;;;;;;;;;5029392;28;20033;-75
2021/12/06 09:31:32;;;;;;;15.98;8.25;;;;;;;;;;5030256;28;20141;-73
2021/12/06 09:33:58;;;;;;;17.50;9.00;;;;;;;;;;5030630;28;20534;-73
2021/12/06 09:36:25;;;;;;;15.23;7.90;;;;;;;;;;5028965;28;20039;-74
2021/12/06 09:38:51;;;;;;;12.98;7.30;;;;;;;;;;5029577;28;20098;-74
2021/12/06 09:41:22;;;;;;;18.25;8.45;;;;;;;;;;5021514;28;20025;-74
2021/12/06 09:43:49;;;;;;;14.50;7.70;;;;;;;;;;5010399;28;20041;-73
2021/12/06 09:46:15;;;;;;;19.25;9.65;;;;;;;;;;5010921;28;20025;-74
2021/12/06 09:48:43;;;;;;;23.85;11.10;;;;;;;;;;5026037;28;20071;-73
2021/12/06 09:51:13;;;;;;;22.70;10.65;;;;;;;;;;5029271;28;20037;-73
2021/12/06 09:53:41;;;;;;;20.58;9.73;;;;;;;;;;5030007;28;20033;-74
2021/12/06 09:56:14;;;;;;;16.50;8.23;;;;;;;;;;5030372;28;20048;-74
2021/12/06 09:58:40;;;;;;;16.88;8.65;;;;;;;;;;5030282;28;20036;-74
2021/12/06 10:01:24;;;;;;;15.90;7.97;;;;;;;;;;5029512;28;20037;-74
2021/12/06 10:03:53;;;;;;;11.15;6.40;;;;;;;;;;5029347;28;20104;-74
2021/12/06 10:06:19;;;;;;;14.18;6.07;;;;;;;;;;5029739;28;20034;-75
2021/12/06 10:08:49;;;;;;;13.98;6.65;;;;;;;;;;5029980;28;20054;-74
2021/12/06 10:11:16;;;;;;;13.57;6.93;;;;;;;;;;5030076;28;20032;-75
2021/12/06 10:13:41;;;;;;;12.63;6.55;;;;;;;;;;5028862;28;20025;-75
2021/12/06 10:16:08;;;;;;;10.82;5.70;;;;;;;;;;5030030;28;20379;-74
2021/12/06 10:18:33;;;;;;;11.55;6.38;;;;;;;;;;5030277;28;20079;-75
2021/12/06 10:21:01;;;;;;;11.23;6.07;;;;;;;;;;5029530;28;20495;-73
2021/12/06 10:23:26;;;;;;;11.65;7.18;;;;;;;;;;5029158;28;20064;-76
2021/12/06 10:25:53;;;;;;;14.00;6.93;;;;;;;;;;5016250;28;20021;-75
2021/12/06 10:28:27;;;;;;;11.77;7.00;;;;;;;;;;5029431;28;20118;-74
2021/12/06 10:30:56;;;;;;;11.50;6.20;;;;;;;;;;5029408;28;20060;-75
2021/12/06 10:33:26;;;;;;;13.70;8.40;;;;;;;;;;5011181;28;20046;-75
2021/12/06 10:35:54;;;;;;;12.45;6.38;;;;;;;;;;5029836;28;20053;-74
2021/12/06 10:38:24;;;;;;;10.18;6.15;;;;;;;;;;5033424;28;20127;-74
2021/12/06 10:40:54;;;;;;;10.57;6.28;;;;;;;;;;5029852;28;20112;-75
2021/12/06 10:43:20;;;;;;;11.75;6.20;;;;;;;;;;5030441;28;20033;-74
2021/12/06 10:45:48;;;;;;;10.48;6.30;;;;;;;;;;5028565;28;20497;-75
2021/12/06 10:48:30;;;;;;;14.18;6.38;;;;;;;;;;5029239;28;20042;-75
2021/12/06 10:51:10;;;;;;;11.27;6.18;;;;;;;;;;5029285;28;20159;-75
2021/12/06 10:53:45;;;;;;;12.48;7.03;;;;;;;;;;5029547;28;20907;-74
2021/12/06 10:56:25;;;;;;;14.52;7.57;;;;;;;;;;5029106;28;20079;-74
2021/12/06 10:58:53;;;;;;;16.05;8.43;;;;;;;;;;5029391;28;20029;-73
2021/12/06 11:01:28;;;;;;;14.82;7.90;;;;;;;;;;5028974;28;20040;-75
2021/12/06 11:03:55;;;;;;;14.10;6.90;;;;;;;;;;5027463;28;20029;-73
2021/12/06 11:06:31;;;;;;;17.35;8.02;;;;;;;;;;5012595;28;20042;-74
2021/12/06 11:09:00;;;;;;;13.48;6.72;;;;;;;;;;5008291;28;20530;-73
2021/12/06 11:11:29;;;;;;;14.68;6.70;;;;;;;;;;5015355;28;20034;-74
2021/12/06 11:14:02;;;;;;;14.57;7.07;;;;;;;;;;5008183;28;20071;-72
2021/12/06 11:16:32;;;;;;;15.93;7.30;;;;;;;;;;5008095;28;20030;-73
2021/12/06 11:19:06;;;;;;;10.82;6.38;;;;;;;;;;5026291;28;20040;-73
2021/12/06 11:21:44;;;;;;;19.45;9.52;;;;;;;;;;5028852;28;20113;-74
2021/12/06 11:24:25;;;;;;;15.25;6.55;;;;;;;;;;5028836;28;20029;-75
2021/12/06 11:27:11;;;;;;;11.82;6.10;;;;;;;;;;5024122;28;20104;-72
2021/12/06 11:29:39;;;;;;;10.10;5.50;;;;;;;;;;5030649;28;20071;-74
2021/12/06 11:32:20;;;;;;;10.27;5.40;;;;;;;;;;5028829;28;20018;-74
2021/12/06 11:34:59;;;;;;;13.95;6.78;;;;;;;;;;5029204;28;20030;-73
2021/12/06 11:37:24;;;;;;;11.10;5.35;;;;;;;;;;5028000;28;20101;-74
2021/12/06 11:40:13;;;;;;;9.80;5.22;;;;;;;;;;5031475;28;20125;-74
2021/12/06 11:43:06;;;;;;;8.43;4.80;;;;;;;;;;5015079;28;20061;-74
2021/12/06 11:45:32;;;;;;;9.70;5.28;;;;;;;;;;5032702;28;20025;-75
2021/12/06 11:48:06;;;;;;;10.07;5.22;;;;;;;;;;5032426;28;20230;-72
2021/12/06 11:50:32;;;;;;;9.80;6.03;;;;;;;;;;5016644;28;20026;-74
2021/12/06 11:53:04;;;;;;;10.98;5.43;;;;;;;;;;5011173;28;20029;-73
2021/12/06 11:55:29;;;;;;;10.10;5.65;;;;;;;;;;5011394;28;20029;-73
2021/12/06 11:57:54;;;;;;;8.63;5.20;;;;;;;;;;5013299;28;20563;-72
2021/12/06 12:00:22;;;;;;;9.35;4.90;;;;;;;;;;4995023;28;20503;-74
2021/12/06 12:02:53;;;;;;;10.70;6.68;;;;;;;;;;5013156;28;20056;-74
2021/12/06 12:05:26;;;;;;;10.00;5.32;;;;;;;;;;5012476;28;20038;-71
2021/12/06 12:07:59;;;;;;;11.65;6.03;;;;;;;;;;4995327;28;20023;-73
2021/12/06 12:10:37;;;;;;;;;;;;;;;;;;5013259;28;20029;-72
2021/12/06 12:13:05;;;;;;;7.95;5.38;;;;;;;;;;4994828;28;19913;-74
2021/12/06 12:15:30;;;;;;;10.23;6.90;;;;;;;;;;5012518;28;20147;-74
2021/12/06 12:17:55;;;;;;;7.35;4.75;;;;;;;;;;5012631;28;20022;-74
2021/12/06 12:20:23;;;;;;;8.65;4.38;;;;;;;;;;5011128;28;20037;-73
2021/12/06 12:22:55;;;;;;;7.93;4.90;;;;;;;;;;5012653;28;20025;-73
2021/12/06 12:25:31;;;;;;;8.75;4.72;;;;;;;;;;5012273;28;20056;-73
2021/12/06 12:28:13;;;;;;;7.57;4.45;;;;;;;;;;5012649;28;20029;-75
2021/12/06 12:30:38;;;;;;;7.95;4.55;;;;;;;;;;4994642;28;20108;-73
2021/12/06 12:33:07;;;;;;;8.00;4.72;;;;;;;;;;5030356;28;20597;-75
2021/12/06 12:35:34;;;;;;;7.85;5.13;;;;;;;;;;5031997;28;20525;-74
2021/12/06 12:38:00;;;;;;;9.00;4.95;;;;;;;;;;5031532;28;20531;-74
2021/12/06 12:40:41;;;;;;;9.07;5.60;;;;;;;;;;5031252;28;20499;-74
2021/12/06 12:43:13;;;;;;;10.45;6.30;;;;;;;;;;5031811;28;20036;-73
2021/12/06 12:45:45;;;;;;;15.18;8.60;;;;;;;;;;5031467;28;20096;-74
2021/12/06 12:48:11;;;;;;;12.27;7.10;;;;;;;;;;5032059;28;20017;-73
2021/12/06 12:50:38;;;;;;;13.52;7.70;;;;;;;;;;5030288;28;20036;-72
2021/12/06 12:53:17;;;;;;;14.60;8.25;;;;;;;;;;5031746;28;20037;-73
2021/12/06 12:55:49;;;;;;;15.00;8.85;;;;;;;;;;5031077;28;20025;-74
2021/12/06 12:58:19;;;;;;;17.58;9.25;;;;;;;;;;5032159;28;20056;-74
2021/12/06 13:00:48;;;;;;;16.02;9.77;;;;;;;;;;5032640;28;20030;-74
2021/12/06 13:03:41;;;;;;;14.25;7.95;;;;;;;;;;5030508;28;20133;-74
2021/12/06 13:06:26;;;;;;;14.10;8.75;;;;;;;;;;5028072;28;20069;-73
2021/12/06 13:08:58;;;;;;;12.85;8.07;;;;;;;;;;5031583;28;20025;-74
2021/12/06 13:11:28;;;;;;;12.55;7.07;;;;;;;;;;5013098;28;20111;-71
2021/12/06 13:13:54;;;;;;;11.20;6.95;;;;;;;;;;5030526;28;20025;-72
2021/12/06 13:16:43;;;;;;;14.35;7.95;;;;;;;;;;5031311;28;20080;-74
2021/12/06 13:19:32;;;;;;;11.27;6.50;;;;;;;;;;5031522;28;20029;-73
2021/12/06 13:22:11;;;;;;;13.60;7.10;;;;;;;;;;5030891;28;20087;-73
2021/12/06 13:24:50;;;;;;;11.75;6.45;;;;;;;;;;5030212;28;20391;-73
2021/12/06 13:27:31;;;;;;;12.00;6.25;;;;;;;;;;5030860;28;20025;-73
2021/12/06 13:30:01;;;;;;;13.98;6.88;;;;;;;;;;5030992;28;20030;-74
2021/12/06 13:32:38;;;;;;;13.63;8.07;;;;;;;;;;5030775;28;20025;-73
2021/12/06 13:35:22;;;;;;;10.13;5.85;;;;;;;;;;5030241;28;20479;-73
2021/12/06 13:38:06;;;;;;;;;;;;;;;;;;5031481;28;20025;-73
2021/12/06 13:40:34;;;;;;;12.68;7.38;;;;;;;;;;5030163;28;20429;-73
2021/12/06 13:43:14;;;;;;;11.73;6.50;;;;;;;;;;5030707;28;20033;-73
2021/12/06 13:45:43;;;;;;;13.45;6.68;;;;;;;;;;5030210;28;20502;-74
2021/12/06 13:48:20;;;;;;;12.68;7.57;;;;;;;;;;5030422;28;20057;-75
2021/12/06 13:50:47;;;;;;;7.00;4.55;;;;;;;;;;5030714;28;20041;-74
2021/12/06 13:53:21;;;;;;;10.63;5.88;;;;;;;;;;5032019;28;20050;-72
2021/12/06 13:55:51;;;;;;;6.45;3.88;;;;;;;;;;5031727;28;20037;-71
2021/12/06 13:58:17;;;;;;;6.80;4.25;;;;;;;;;;5035918;28;20025;-74
2021/12/06 14:00:47;;;;;;;7.50;4.40;;;;;;;;;;5037719;28;20033;-75
2021/12/06 14:03:17;;;;;;;7.30;3.95;;;;;;;;;;5037362;28;20077;-71
2021/12/06 14:05:46;;;;;;;7.85;3.30;;;;;;;;;;5035144;28;20029;-74
2021/12/06 14:08:20;;;;;;;5.15;3.60;;;;;;;;;;5033907;28;20033;-73
2021/12/06 14:10:46;;;;;;;7.18;3.75;;;;;;;;;;5029489;28;20549;-74
2021/12/06 14:13:12;;;;;;;5.40;3.42;;;;;;;;;;5029393;28;20041;-71
2021/12/06 14:15:49;;;;;;;9.35;3.42;;;;;;;;;;5030016;28;20079;-72
2021/12/06 14:18:17;;;;;;;5.13;3.42;;;;;;;;;;5029996;28;20021;-74
2021/12/06 14:21:01;;;;;;;6.72;4.10;;;;;;;;;;5030328;28;20021;-74
2021/12/06 14:23:29;;;;;;;6.18;3.88;;;;;;;;;;5029859;28;20051;-72
2021/12/06 14:26:02;;;;;;;7.07;3.88;;;;;;;;;;5029724;28;20083;-73
2021/12/06 14:28:30;;;;;;;5.75;3.83;;;;;;;;;;5030802;28;20067;-74
2021/12/06 14:30:58;;;;;;;7.68;4.03;;;;;;;;;;5031730;28;20037;-73
2021/12/06 14:33:27;;;;;;;7.25;3.85;;;;;;;;;;5030721;28;20475;-75
2021/12/06 14:35:53;;;;;;;9.60;5.43;;;;;;;;;;5029828;28;20112;-72
2021/12/06 14:38:24;;;;;;;8.10;5.18;;;;;;;;;;5029260;28;20391;-74
2021/12/06 14:40:50;;;;;;;9.13;4.80;;;;;;;;;;5029953;28;20025;-74
2021/12/06 14:43:17;;;;;;;10.32;5.80;;;;;;;;;;5029676;28;20104;-74
2021/12/06 14:45:44;;;;;;;9.90;5.15;;;;;;;;;;5028752;28;20018;-73
2021/12/06 14:54:15;;;;;;;8.93;4.78;;;;;;;;;;5028318;28;20453;-72
2021/12/06 14:56:51;;;;;;;8.30;4.28;;;;;;;;;;5020478;28;20104;-70
2021/12/06 14:59:20;;;;;;;8.57;4.47;;;;;;;;;;5028109;28;20021;-71
2021/12/06 15:01:46;;;;;;;7.15;4.20;;;;;;;;;;5016151;28;20040;-70
2021/12/06 15:04:18;;;;;;;6.50;3.70;;;;;;;;;;5031876;22;20054;-76
2021/12/06 15:06:47;;;;;;;7.95;3.90;;;;;;;;;;5009073;28;20022;-75
2021/12/06 15:09:16;;;;;;;8.80;4.13;;;;;;;;;;5009188;28;20030;-75
2021/12/06 15:11:42;;;;;;;8.82;4.10;;;;;;;;;;5008843;28;20105;-76